sensor_id;sensor_type;location;lat;lon;timestamp;temperature;humidity
445;DHT22;209;48.774;9.238;2022-09-21T00:01:56;8.40;1.00
445;DHT22;209;48.774;9.238;2022-09-21T00:04:43;8.40;1.00
445;DHT22;209;48.774;9.238;2022-09-21T00:07:33;8.30;1.00
445;DHT22;209;48.774;9.238;2022-09-21T00:10:21;8.30;1.00
445;DHT22;209;48.774;9.238;2022-09-21T00:13:10;8.30;1.00
445;DHT22;209;48.774;9.238;2022-09-21T00:15:59;8.30;1.00
445;DHT22;209;48.774;9.238;2022-09-21T00:18:47;8.30;1.00
445;DHT22;209;48.774;9.238;2022-09-21T00:21:35;8.30;1.00
445;DHT22;209;48.774;9.238;2022-09-21T00:24:26;8.20;1.00
445;DHT22;209;48.774;9.238;2022-09-21T00:27:14;8.10;1.00
445;DHT22;209;48.774;9.238;2022-09-21T00:30:02;8.10;1.00
445;DHT22;209;48.774;9.238;2022-09-21T00:32:52;8.00;1.00
445;DHT22;209;48.774;9.238;2022-09-21T00:35:40;8.00;1.00
445;DHT22;209;48.774;9.238;2022-09-21T00:38:28;8.10;1.00
445;DHT22;209;48.774;9.238;2022-09-21T00:41:17;8.00;1.00
445;DHT22;209;48.774;9.238;2022-09-21T00:44:24;8.00;1.00
445;DHT22;209;48.774;9.238;2022-09-21T00:47:16;7.90;1.00
445;DHT22;209;48.774;9.238;2022-09-21T00:50:09;7.90;1.00
445;DHT22;209;48.774;9.238;2022-09-21T00:52:59;7.80;1.00
445;DHT22;209;48.774;9.238;2022-09-21T00:55:50;7.90;1.00
445;DHT22;209;48.774;9.238;2022-09-21T01:01:31;7.70;1.00
445;DHT22;209;48.774;9.238;2022-09-21T01:04:23;7.70;1.00
445;DHT22;209;48.774;9.238;2022-09-21T01:07:16;7.60;1.00
445;DHT22;209;48.774;9.238;2022-09-21T01:10:07;7.60;1.00
445;DHT22;209;48.774;9.238;2022-09-21T01:13:06;7.50;1.00
445;DHT22;209;48.774;9.238;2022-09-21T01:16:02;7.60;1.00
445;DHT22;209;48.774;9.238;2022-09-21T01:18:57;7.60;1.00
445;DHT22;209;48.774;9.238;2022-09-21T01:21:54;7.60;1.00
445;DHT22;209;48.774;9.238;2022-09-21T01:24:50;7.60;1.00
445;DHT22;209;48.774;9.238;2022-09-21T01:28:05;7.70;1.00
445;DHT22;209;48.774;9.238;2022-09-21T01:30:57;7.70;1.00
445;DHT22;209;48.774;9.238;2022-09-21T01:33:48;7.70;1.00
445;DHT22;209;48.774;9.238;2022-09-21T01:36:38;7.70;1.00
445;DHT22;209;48.774;9.238;2022-09-21T01:39:28;7.70;1.00
445;DHT22;209;48.774;9.238;2022-09-21T01:42:17;7.70;1.00
445;DHT22;209;48.774;9.238;2022-09-21T01:45:07;7.70;1.00
445;DHT22;209;48.774;9.238;2022-09-21T01:48:00;7.60;1.00
445;DHT22;209;48.774;9.238;2022-09-21T01:50:52;7.50;1.00
445;DHT22;209;48.774;9.238;2022-09-21T01:53:43;7.50;1.00
445;DHT22;209;48.774;9.238;2022-09-21T01:56:36;7.40;1.00
445;DHT22;209;48.774;9.238;2022-09-21T01:59:29;7.30;1.00
445;DHT22;209;48.774;9.238;2022-09-21T02:02:25;7.30;1.00
445;DHT22;209;48.774;9.238;2022-09-21T02:05:19;7.30;1.00
445;DHT22;209;48.774;9.238;2022-09-21T02:08:08;7.40;1.00
445;DHT22;209;48.774;9.238;2022-09-21T02:10:58;7.30;1.00
445;DHT22;209;48.774;9.238;2022-09-21T02:13:49;7.20;1.00
445;DHT22;209;48.774;9.238;2022-09-21T02:16:40;7.30;1.00
445;DHT22;209;48.774;9.238;2022-09-21T02:19:38;7.30;1.00
445;DHT22;209;48.774;9.238;2022-09-21T02:22:34;7.20;1.00
445;DHT22;209;48.774;9.238;2022-09-21T02:25:33;7.10;1.00
445;DHT22;209;48.774;9.238;2022-09-21T02:28:30;7.10;1.00
445;DHT22;209;48.774;9.238;2022-09-21T02:31:28;7.20;1.00
445;DHT22;209;48.774;9.238;2022-09-21T02:34:23;7.10;1.00
445;DHT22;209;48.774;9.238;2022-09-21T02:37:18;7.10;1.00
445;DHT22;209;48.774;9.238;2022-09-21T02:40:16;7.10;1.00
445;DHT22;209;48.774;9.238;2022-09-21T02:43:11;7.10;1.00
445;DHT22;209;48.774;9.238;2022-09-21T02:46:05;7.00;1.00
445;DHT22;209;48.774;9.238;2022-09-21T02:48:58;7.10;1.00
445;DHT22;209;48.774;9.238;2022-09-21T02:51:50;7.20;1.00
445;DHT22;209;48.774;9.238;2022-09-21T02:54:39;7.20;1.00
445;DHT22;209;48.774;9.238;2022-09-21T02:57:29;7.20;1.00
445;DHT22;209;48.774;9.238;2022-09-21T03:00:18;7.20;1.00
445;DHT22;209;48.774;9.238;2022-09-21T03:03:14;7.10;1.00
445;DHT22;209;48.774;9.238;2022-09-21T03:06:03;7.20;1.00
445;DHT22;209;48.774;9.238;2022-09-21T03:08:51;7.20;1.00
445;DHT22;209;48.774;9.238;2022-09-21T03:11:39;7.10;1.00
445;DHT22;209;48.774;9.238;2022-09-21T03:14:29;7.10;1.00
445;DHT22;209;48.774;9.238;2022-09-21T03:17:18;7.20;1.00
445;DHT22;209;48.774;9.238;2022-09-21T03:20:06;7.30;1.00
445;DHT22;209;48.774;9.238;2022-09-21T03:22:54;7.20;1.00
445;DHT22;209;48.774;9.238;2022-09-21T03:25:43;7.20;1.00
445;DHT22;209;48.774;9.238;2022-09-21T03:28:31;7.20;1.00
445;DHT22;209;48.774;9.238;2022-09-21T03:31:20;7.20;1.00
445;DHT22;209;48.774;9.238;2022-09-21T03:34:08;7.20;1.00
445;DHT22;209;48.774;9.238;2022-09-21T03:36:56;7.20;1.00
445;DHT22;209;48.774;9.238;2022-09-21T03:39:44;7.20;1.00
445;DHT22;209;48.774;9.238;2022-09-21T03:42:32;7.20;1.00
445;DHT22;209;48.774;9.238;2022-09-21T03:45:21;7.10;1.00
445;DHT22;209;48.774;9.238;2022-09-21T03:48:10;7.20;1.00
445;DHT22;209;48.774;9.238;2022-09-21T03:51:00;7.10;1.00
445;DHT22;209;48.774;9.238;2022-09-21T03:53:48;7.00;1.00
445;DHT22;209;48.774;9.238;2022-09-21T03:56:36;6.90;1.00
445;DHT22;209;48.774;9.238;2022-09-21T03:59:24;6.90;1.00
445;DHT22;209;48.774;9.238;2022-09-21T04:02:11;6.80;1.00
445;DHT22;209;48.774;9.238;2022-09-21T04:05:00;6.90;1.00
445;DHT22;209;48.774;9.238;2022-09-21T04:07:48;6.90;1.00
445;DHT22;209;48.774;9.238;2022-09-21T04:10:38;6.80;1.00
445;DHT22;209;48.774;9.238;2022-09-21T04:13:27;6.80;1.00
445;DHT22;209;48.774;9.238;2022-09-21T04:16:15;6.80;1.00
445;DHT22;209;48.774;9.238;2022-09-21T04:19:03;6.80;1.00
445;DHT22;209;48.774;9.238;2022-09-21T04:21:53;6.80;1.00
445;DHT22;209;48.774;9.238;2022-09-21T04:24:41;6.80;1.00
445;DHT22;209;48.774;9.238;2022-09-21T06:32:08;6.80;1.00
445;DHT22;209;48.774;9.238;2022-09-21T06:34:56;8.30;1.00
445;DHT22;209;48.774;9.238;2022-09-21T06:37:46;8.30;1.00
445;DHT22;209;48.774;9.238;2022-09-21T06:40:35;8.40;1.00
445;DHT22;209;48.774;9.238;2022-09-21T06:43:23;8.50;1.00
445;DHT22;209;48.774;9.238;2022-09-21T06:46:11;8.50;1.00
445;DHT22;209;48.774;9.238;2022-09-21T06:48:59;8.60;1.00
445;DHT22;209;48.774;9.238;2022-09-21T06:51:50;8.70;1.00
445;DHT22;209;48.774;9.238;2022-09-21T06:54:39;8.80;1.00
445;DHT22;209;48.774;9.238;2022-09-21T06:57:27;9.00;1.00
445;DHT22;209;48.774;9.238;2022-09-21T07:00:15;9.00;1.00
445;DHT22;209;48.774;9.238;2022-09-21T07:03:04;9.20;1.00
445;DHT22;209;48.774;9.238;2022-09-21T07:05:52;9.30;1.00
445;DHT22;209;48.774;9.238;2022-09-21T07:08:40;9.30;1.00
445;DHT22;209;48.774;9.238;2022-09-21T07:11:31;9.30;1.00
445;DHT22;209;48.774;9.238;2022-09-21T08:24:37;9.60;1.00
445;DHT22;209;48.774;9.238;2022-09-21T08:27:29;13.30;1.00
445;DHT22;209;48.774;9.238;2022-09-21T08:30:17;13.20;1.00
445;DHT22;209;48.774;9.238;2022-09-21T08:33:06;13.20;1.00
445;DHT22;209;48.774;9.238;2022-09-21T08:35:57;13.20;1.00
445;DHT22;209;48.774;9.238;2022-09-21T08:38:45;13.30;1.00
445;DHT22;209;48.774;9.238;2022-09-21T08:41:48;13.30;1.00
445;DHT22;209;48.774;9.238;2022-09-21T08:44:40;13.50;1.00
445;DHT22;209;48.774;9.238;2022-09-21T08:47:35;13.60;1.00
445;DHT22;209;48.774;9.238;2022-09-21T08:50:31;13.60;1.00
445;DHT22;209;48.774;9.238;2022-09-21T08:53:24;13.70;1.00
445;DHT22;209;48.774;9.238;2022-09-21T08:56:15;13.70;1.00
445;DHT22;209;48.774;9.238;2022-09-21T08:59:09;13.80;1.00
445;DHT22;209;48.774;9.238;2022-09-21T09:02:06;13.90;1.00
445;DHT22;209;48.774;9.238;2022-09-21T09:05:17;13.80;1.00
445;DHT22;209;48.774;9.238;2022-09-21T09:08:25;13.80;1.00
445;DHT22;209;48.774;9.238;2022-09-21T09:11:33;13.80;1.00
445;DHT22;209;48.774;9.238;2022-09-21T09:14:39;14.00;1.00
445;DHT22;209;48.774;9.238;2022-09-21T09:17:38;14.00;1.00
445;DHT22;209;48.774;9.238;2022-09-21T09:20:35;14.00;1.00
445;DHT22;209;48.774;9.238;2022-09-21T09:23:27;14.00;1.00
445;DHT22;209;48.774;9.238;2022-09-21T09:26:20;14.00;1.00
445;DHT22;209;48.774;9.238;2022-09-21T09:29:15;13.90;1.00
445;DHT22;209;48.774;9.238;2022-09-21T09:32:08;13.90;1.00
445;DHT22;209;48.774;9.238;2022-09-21T09:35:04;14.10;1.00
445;DHT22;209;48.774;9.238;2022-09-21T09:37:57;14.20;1.00
445;DHT22;209;48.774;9.238;2022-09-21T09:41:02;14.20;1.00
445;DHT22;209;48.774;9.238;2022-09-21T09:43:59;14.20;1.00
445;DHT22;209;48.774;9.238;2022-09-21T09:46:59;14.20;1.00
445;DHT22;209;48.774;9.238;2022-09-21T09:49:58;14.30;1.00
445;DHT22;209;48.774;9.238;2022-09-21T09:52:47;14.20;1.00
445;DHT22;209;48.774;9.238;2022-09-21T09:55:37;14.20;1.00
445;DHT22;209;48.774;9.238;2022-09-21T15:51:33;14.30;1.00
445;DHT22;209;48.774;9.238;2022-09-21T15:54:28;15.90;1.00
445;DHT22;209;48.774;9.238;2022-09-21T15:57:36;15.80;1.00
445;DHT22;209;48.774;9.238;2022-09-21T16:00:27;15.80;1.00
445;DHT22;209;48.774;9.238;2022-09-21T16:03:18;15.70;1.00
445;DHT22;209;48.774;9.238;2022-09-21T16:06:24;15.70;1.00
445;DHT22;209;48.774;9.238;2022-09-21T16:09:39;15.60;1.00
445;DHT22;209;48.774;9.238;2022-09-21T16:12:38;15.50;1.00
445;DHT22;209;48.774;9.238;2022-09-21T16:15:27;15.40;1.00
445;DHT22;209;48.774;9.238;2022-09-21T16:18:29;15.40;1.00
445;DHT22;209;48.774;9.238;2022-09-21T16:21:23;15.30;1.00
445;DHT22;209;48.774;9.238;2022-09-21T16:24:17;15.30;1.00
445;DHT22;209;48.774;9.238;2022-09-21T16:27:05;15.30;1.00
445;DHT22;209;48.774;9.238;2022-09-21T16:29:53;15.20;1.00
445;DHT22;209;48.774;9.238;2022-09-21T16:32:41;15.30;1.00
445;DHT22;209;48.774;9.238;2022-09-21T16:35:38;15.30;1.00
445;DHT22;209;48.774;9.238;2022-09-21T16:38:27;15.20;1.00
445;DHT22;209;48.774;9.238;2022-09-21T16:41:15;15.30;1.00
445;DHT22;209;48.774;9.238;2022-09-21T16:44:04;15.20;1.00
445;DHT22;209;48.774;9.238;2022-09-21T16:46:59;15.10;1.00
445;DHT22;209;48.774;9.238;2022-09-21T16:49:47;15.00;1.00
445;DHT22;209;48.774;9.238;2022-09-21T16:52:34;14.90;1.00
445;DHT22;209;48.774;9.238;2022-09-21T16:55:23;14.90;1.00
445;DHT22;209;48.774;9.238;2022-09-21T16:58:10;14.80;1.00
445;DHT22;209;48.774;9.238;2022-09-21T17:00:57;14.80;1.00
445;DHT22;209;48.774;9.238;2022-09-21T17:03:45;14.80;1.00
445;DHT22;209;48.774;9.238;2022-09-21T17:06:32;14.70;1.00
445;DHT22;209;48.774;9.238;2022-09-21T17:09:24;14.70;1.00
445;DHT22;209;48.774;9.238;2022-09-21T17:12:15;14.60;1.00
445;DHT22;209;48.774;9.238;2022-09-21T17:15:04;14.50;1.00
445;DHT22;209;48.774;9.238;2022-09-21T17:17:52;14.30;1.00
445;DHT22;209;48.774;9.238;2022-09-21T17:20:44;14.10;1.00
445;DHT22;209;48.774;9.238;2022-09-21T17:23:32;14.00;1.00
445;DHT22;209;48.774;9.238;2022-09-21T17:26:19;13.80;1.00
445;DHT22;209;48.774;9.238;2022-09-21T17:29:17;13.60;1.00
445;DHT22;209;48.774;9.238;2022-09-21T17:32:09;13.50;1.00
445;DHT22;209;48.774;9.238;2022-09-21T17:34:59;13.30;1.00
445;DHT22;209;48.774;9.238;2022-09-21T17:37:47;13.10;1.00
445;DHT22;209;48.774;9.238;2022-09-21T17:40:35;13.00;1.00
445;DHT22;209;48.774;9.238;2022-09-21T17:43:34;12.90;1.00
445;DHT22;209;48.774;9.238;2022-09-21T17:46:31;12.70;1.00
445;DHT22;209;48.774;9.238;2022-09-21T17:49:22;12.60;1.00
445;DHT22;209;48.774;9.238;2022-09-21T17:52:14;12.50;1.00
445;DHT22;209;48.774;9.238;2022-09-21T17:55:20;12.40;1.00
445;DHT22;209;48.774;9.238;2022-09-21T17:58:21;12.40;1.00
445;DHT22;209;48.774;9.238;2022-09-21T18:01:21;12.30;1.00
445;DHT22;209;48.774;9.238;2022-09-21T18:04:13;12.30;1.00
445;DHT22;209;48.774;9.238;2022-09-21T18:07:02;12.20;1.00
445;DHT22;209;48.774;9.238;2022-09-21T18:09:49;12.10;1.00
445;DHT22;209;48.774;9.238;2022-09-21T18:12:46;12.10;1.00
445;DHT22;209;48.774;9.238;2022-09-21T18:15:39;12.00;1.00
445;DHT22;209;48.774;9.238;2022-09-21T18:18:39;11.90;1.00
445;DHT22;209;48.774;9.238;2022-09-21T18:24:18;11.80;1.00
445;DHT22;209;48.774;9.238;2022-09-21T18:27:08;11.70;1.00
445;DHT22;209;48.774;9.238;2022-09-21T18:29:57;11.70;1.00
445;DHT22;209;48.774;9.238;2022-09-21T18:32:54;11.60;1.00
445;DHT22;209;48.774;9.238;2022-09-21T18:35:54;11.60;1.00
445;DHT22;209;48.774;9.238;2022-09-21T18:38:51;11.60;1.00
445;DHT22;209;48.774;9.238;2022-09-21T18:41:49;11.50;1.00
445;DHT22;209;48.774;9.238;2022-09-21T18:44:48;11.50;1.00
445;DHT22;209;48.774;9.238;2022-09-21T18:47:42;11.50;1.00
445;DHT22;209;48.774;9.238;2022-09-21T18:50:35;11.50;1.00
445;DHT22;209;48.774;9.238;2022-09-21T18:53:37;11.50;1.00
445;DHT22;209;48.774;9.238;2022-09-21T18:56:33;11.40;1.00
445;DHT22;209;48.774;9.238;2022-09-21T18:59:24;11.50;1.00
445;DHT22;209;48.774;9.238;2022-09-21T19:02:13;11.50;1.00
445;DHT22;209;48.774;9.238;2022-09-21T19:05:01;11.50;1.00
445;DHT22;209;48.774;9.238;2022-09-21T19:07:55;11.40;1.00
445;DHT22;209;48.774;9.238;2022-09-21T19:10:44;11.40;1.00
445;DHT22;209;48.774;9.238;2022-09-21T19:13:43;11.30;1.00
445;DHT22;209;48.774;9.238;2022-09-21T19:16:43;11.20;1.00
445;DHT22;209;48.774;9.238;2022-09-21T19:19:37;11.20;1.00
445;DHT22;209;48.774;9.238;2022-09-21T19:22:32;11.20;1.00
445;DHT22;209;48.774;9.238;2022-09-21T19:25:30;11.10;1.00
445;DHT22;209;48.774;9.238;2022-09-21T19:28:40;11.00;1.00
445;DHT22;209;48.774;9.238;2022-09-21T19:31:31;11.00;1.00
445;DHT22;209;48.774;9.238;2022-09-21T19:34:22;10.90;1.00
445;DHT22;209;48.774;9.238;2022-09-21T19:37:10;10.90;1.00
445;DHT22;209;48.774;9.238;2022-09-21T19:39:58;10.90;1.00
445;DHT22;209;48.774;9.238;2022-09-21T19:43:05;10.80;1.00
445;DHT22;209;48.774;9.238;2022-09-21T19:46:04;10.80;1.00
445;DHT22;209;48.774;9.238;2022-09-21T19:48:56;10.70;1.00
445;DHT22;209;48.774;9.238;2022-09-21T19:51:49;10.60;1.00
445;DHT22;209;48.774;9.238;2022-09-21T19:54:37;10.40;1.00
445;DHT22;209;48.774;9.238;2022-09-21T19:57:42;10.30;1.00
445;DHT22;209;48.774;9.238;2022-09-21T20:00:51;10.30;1.00
445;DHT22;209;48.774;9.238;2022-09-21T20:03:42;10.30;1.00
445;DHT22;209;48.774;9.238;2022-09-21T20:06:34;10.30;1.00
445;DHT22;209;48.774;9.238;2022-09-21T20:09:28;10.30;1.00
445;DHT22;209;48.774;9.238;2022-09-21T20:12:21;10.20;1.00
445;DHT22;209;48.774;9.238;2022-09-21T20:15:13;10.20;1.00
445;DHT22;209;48.774;9.238;2022-09-21T20:18:09;10.20;1.00
445;DHT22;209;48.774;9.238;2022-09-21T20:20:57;10.10;1.00
445;DHT22;209;48.774;9.238;2022-09-21T20:23:45;10.00;1.00
445;DHT22;209;48.774;9.238;2022-09-21T20:26:34;10.10;1.00
445;DHT22;209;48.774;9.238;2022-09-21T20:29:22;10.00;1.00
445;DHT22;209;48.774;9.238;2022-09-21T20:32:09;9.90;1.00
445;DHT22;209;48.774;9.238;2022-09-21T20:34:56;9.80;1.00
445;DHT22;209;48.774;9.238;2022-09-21T20:37:44;9.80;1.00
445;DHT22;209;48.774;9.238;2022-09-21T20:40:32;9.70;1.00
445;DHT22;209;48.774;9.238;2022-09-21T20:43:21;9.60;1.00
445;DHT22;209;48.774;9.238;2022-09-21T20:46:10;9.60;1.00
445;DHT22;209;48.774;9.238;2022-09-21T20:48:57;9.60;1.00
445;DHT22;209;48.774;9.238;2022-09-21T20:51:49;9.60;1.00
445;DHT22;209;48.774;9.238;2022-09-21T20:54:37;9.60;1.00
445;DHT22;209;48.774;9.238;2022-09-21T20:57:24;9.60;1.00
445;DHT22;209;48.774;9.238;2022-09-21T21:00:14;9.40;1.00
445;DHT22;209;48.774;9.238;2022-09-21T21:03:02;9.30;1.00
445;DHT22;209;48.774;9.238;2022-09-21T21:05:50;9.20;1.00
445;DHT22;209;48.774;9.238;2022-09-21T21:08:38;9.20;1.00
445;DHT22;209;48.774;9.238;2022-09-21T21:11:26;9.20;1.00
445;DHT22;209;48.774;9.238;2022-09-21T21:14:13;9.30;1.00
445;DHT22;209;48.774;9.238;2022-09-21T21:17:02;9.20;1.00
445;DHT22;209;48.774;9.238;2022-09-21T21:19:50;9.20;1.00
445;DHT22;209;48.774;9.238;2022-09-21T21:22:37;9.20;1.00
445;DHT22;209;48.774;9.238;2022-09-21T21:25:24;9.20;1.00
445;DHT22;209;48.774;9.238;2022-09-21T21:28:12;9.10;1.00
445;DHT22;209;48.774;9.238;2022-09-21T21:30:59;9.10;1.00
445;DHT22;209;48.774;9.238;2022-09-21T21:33:48;9.10;1.00
445;DHT22;209;48.774;9.238;2022-09-21T21:36:35;9.10;1.00
445;DHT22;209;48.774;9.238;2022-09-21T21:39:23;9.00;1.00
445;DHT22;209;48.774;9.238;2022-09-21T21:42:11;9.00;1.00
445;DHT22;209;48.774;9.238;2022-09-21T21:44:58;9.00;1.00
445;DHT22;209;48.774;9.238;2022-09-21T21:47:45;8.90;1.00
445;DHT22;209;48.774;9.238;2022-09-21T21:50:36;8.90;1.00
445;DHT22;209;48.774;9.238;2022-09-21T21:53:23;8.70;1.00
445;DHT22;209;48.774;9.238;2022-09-21T21:56:13;8.60;1.00
445;DHT22;209;48.774;9.238;2022-09-21T21:59:01;8.60;1.00
445;DHT22;209;48.774;9.238;2022-09-21T22:01:48;8.60;1.00
445;DHT22;209;48.774;9.238;2022-09-21T22:04:35;8.50;1.00
445;DHT22;209;48.774;9.238;2022-09-21T22:07:25;8.40;1.00
445;DHT22;209;48.774;9.238;2022-09-21T22:10:12;8.40;1.00
445;DHT22;209;48.774;9.238;2022-09-21T22:12:59;8.50;1.00
445;DHT22;209;48.774;9.238;2022-09-21T22:15:46;8.50;1.00
445;DHT22;209;48.774;9.238;2022-09-21T22:18:34;8.50;1.00
445;DHT22;209;48.774;9.238;2022-09-21T22:21:24;8.50;1.00
445;DHT22;209;48.774;9.238;2022-09-21T22:24:13;8.50;1.00
445;DHT22;209;48.774;9.238;2022-09-21T22:27:00;8.50;1.00
445;DHT22;209;48.774;9.238;2022-09-21T22:29:48;8.50;1.00
445;DHT22;209;48.774;9.238;2022-09-21T22:32:35;8.50;1.00
445;DHT22;209;48.774;9.238;2022-09-21T22:35:23;8.50;1.00
445;DHT22;209;48.774;9.238;2022-09-21T22:38:10;8.40;1.00
445;DHT22;209;48.774;9.238;2022-09-21T22:41:03;8.30;1.00
445;DHT22;209;48.774;9.238;2022-09-21T22:43:52;8.30;1.00
445;DHT22;209;48.774;9.238;2022-09-21T22:46:39;8.10;1.00
445;DHT22;209;48.774;9.238;2022-09-21T22:49:26;8.10;1.00
445;DHT22;209;48.774;9.238;2022-09-21T22:52:14;8.10;1.00
445;DHT22;209;48.774;9.238;2022-09-21T22:55:01;8.00;1.00
445;DHT22;209;48.774;9.238;2022-09-21T22:57:50;8.10;1.00
445;DHT22;209;48.774;9.238;2022-09-21T23:00:37;8.10;1.00
445;DHT22;209;48.774;9.238;2022-09-21T23:03:25;8.10;1.00
445;DHT22;209;48.774;9.238;2022-09-21T23:06:15;8.10;1.00
445;DHT22;209;48.774;9.238;2022-09-21T23:09:04;8.10;1.00
445;DHT22;209;48.774;9.238;2022-09-21T23:11:52;8.00;1.00
445;DHT22;209;48.774;9.238;2022-09-21T23:14:41;8.00;1.00
445;DHT22;209;48.774;9.238;2022-09-21T23:17:28;8.10;1.00
445;DHT22;209;48.774;9.238;2022-09-21T23:20:16;8.10;1.00
445;DHT22;209;48.774;9.238;2022-09-21T23:23:04;8.00;1.00
445;DHT22;209;48.774;9.238;2022-09-21T23:26:00;8.00;1.00
445;DHT22;209;48.774;9.238;2022-09-21T23:28:51;8.00;1.00
445;DHT22;209;48.774;9.238;2022-09-21T23:31:40;7.90;1.00
445;DHT22;209;48.774;9.238;2022-09-21T23:34:27;7.90;1.00
445;DHT22;209;48.774;9.238;2022-09-21T23:37:15;7.80;1.00
445;DHT22;209;48.774;9.238;2022-09-21T23:40:03;7.70;1.00
445;DHT22;209;48.774;9.238;2022-09-21T23:42:50;7.60;1.00
445;DHT22;209;48.774;9.238;2022-09-21T23:45:38;7.60;1.00
445;DHT22;209;48.774;9.238;2022-09-21T23:48:28;7.60;1.00
445;DHT22;209;48.774;9.238;2022-09-21T23:51:16;7.70;1.00
445;DHT22;209;48.774;9.238;2022-09-21T23:54:04;7.70;1.00
445;DHT22;209;48.774;9.238;2022-09-21T23:56:51;7.70;1.00
445;DHT22;209;48.774;9.238;2022-09-21T23:59:38;7.70;1.00
